Pacific - South Coast: Past 24 Hour Conditions

 

Cape St.James

01:00 AM PST 29 November 2014
This table is a summary of hourly weather conditions for the past 24 hours.
Date / Time
(PST)
Wind(knots) Conditions Visibility(km) Pressure(kPa) Air tempC) Relative humidity(%) Dew pointC) Wind Chill
29 November 2014
1:00 NNE 25 gust 39 N/A N/A 101.5 -1 58 -8 -9
0:00 ENE 22 gust 41 N/A N/A 101.4 -1 62 -7 -9
28 November 2014
23:00 NE 34 gust 44 N/A N/A 101.3 -1 56 -9 -11
22:00 NNE 36 gust 51 N/A N/A 101.3 -1 54 -10 -11
21:00 NNE 21 gust 46 N/A N/A 101.2 -1 59 -8 -9
20:00 NNE 24 gust 39 N/A N/A 101.2 -1 55 -9 -9
19:00 NNE 22 gust 46 N/A N/A 101.1 -1 60 -8 -8
18:00 NNE 28 gust 44 N/A N/A 101.1 -1 51 -10 -10
17:00 NNE 13 gust 28 N/A N/A 101.1 -2 59 -9 -9
16:00 N 20 gust 27 N/A N/A 101.0 -3 63 -9 -11
15:00 NNE 17 gust 31 N/A N/A 101.0 -3 85 -5 -11
14:00 NNW 22 gust 33 N/A N/A 100.9 -2 81 -5 -11
13:00 NE 14 gust 30 N/A N/A 100.9 -3 96 -3 -9
12:00 NNW 13 gust 26 N/A N/A 100.9 -1 58 -8 -6
11:00 NNW 23 gust 29 N/A N/A 100.9 0 53 -9 -8
10:00 NNW 19 gust 30 N/A N/A 100.9 0 57 -7 *
9:00 NNW 19 N/A N/A 100.9 1 60 -6 *
8:00 N 24 gust 30 N/A N/A 100.8 1 57 -6 *
7:00 NNW 22 gust 30 N/A N/A 100.8 2 55 -6 *
6:00 N 15 gust 27 N/A N/A 100.8 3 53 -6 *
5:00 N 19 gust 27 N/A N/A 100.7 3 50 -6 *
4:00 NNW 17 gust 22 N/A N/A 100.7 3 51 -6 *
3:00 NNW 12 gust 17 N/A N/A 100.7 3 57 -4 *
2:00 NNW 13 gust 25 N/A N/A 100.7 3 57 -5 *
1:00 NNW 14 gust 20 N/A N/A 100.6 4 63 -3 *
 
Map of Pacific - South Coast marine weather areas Tsawwassen Ferry Terminal South Nomad - 46036 Sentry Shoal - 46131 South Brooks - 46132 Halibut Bank - 46146 South Moresby - 46147 South Hecate Strait - 46185 West Sea Otter - 46204 La Perouse Bank - 46206 East Dellwood - 46207 Discovery Island Esquimalt Harbour Kelp Reefs Malahat Race Rocks Lightstation Saturna Island Sheringham Point University of Victoria Victoria Gonzales Victoria Int'l Airport Ballenas Islands Campbell River Airport Comox Airport Entrance Island Fanny Island Nanaimo Airport Port Hardy Airport Sisters Islets Estevan Point Sartine Island Solander Island Tofino Airport Grief Point Powell River Airport Sechelt Cape St.James Bella Bella Airport Bella Coola Airport Cathedral Point Herbert Island Point Atkinson Sand Heads Lightstation Vancouver Harbour Vancouver Int'l Airport West Vancouver Port Alberni Howe Sound - Pam Rocks Squamish Airport